createdAt,value
2017-10-13T00:01:06.814Z,16.43
2017-10-13T00:03:34.314Z,16.38
2017-10-13T00:06:01.799Z,16.44
2017-10-13T00:08:29.261Z,16.41
2017-10-13T00:10:56.738Z,16.43
2017-10-13T00:13:24.258Z,16.40
2017-10-13T00:15:51.723Z,16.29
2017-10-13T00:18:19.188Z,16.27
2017-10-13T00:20:46.694Z,16.29
2017-10-13T00:23:14.164Z,16.25
2017-10-13T00:25:41.686Z,16.17
2017-10-13T00:28:09.172Z,16.16
2017-10-13T00:30:36.638Z,16.15
2017-10-13T00:33:04.169Z,16.23
2017-10-13T00:35:31.674Z,16.20
2017-10-13T00:37:59.135Z,16.18
2017-10-13T00:40:26.605Z,16.29
2017-10-13T00:42:54.111Z,16.15
2017-10-13T00:45:21.579Z,16.01
2017-10-13T00:47:49.080Z,16.05
2017-10-13T00:50:16.649Z,15.88
2017-10-13T00:52:44.111Z,15.81
2017-10-13T00:55:11.571Z,15.74
2017-10-13T00:57:39.081Z,15.62
2017-10-13T01:00:06.547Z,15.80
2017-10-13T01:02:34.129Z,15.77
2017-10-13T01:05:01.648Z,15.85
2017-10-13T01:07:29.142Z,15.80
2017-10-13T01:09:56.602Z,15.90
2017-10-13T01:12:24.147Z,15.74
2017-10-13T01:14:51.645Z,15.59
2017-10-13T01:17:19.135Z,15.67
2017-10-13T01:19:46.648Z,15.80
2017-10-13T01:22:14.171Z,15.85
2017-10-13T01:24:41.652Z,15.84
2017-10-13T01:27:09.146Z,15.87
2017-10-13T01:29:36.643Z,15.91
2017-10-13T01:32:04.119Z,15.85
2017-10-13T01:34:31.919Z,15.93
2017-10-13T01:36:59.402Z,15.84
2017-10-13T01:39:26.918Z,15.88
2017-10-13T01:41:54.419Z,15.84
2017-10-13T01:44:21.888Z,15.79
2017-10-13T01:46:49.368Z,15.80
2017-10-13T01:49:16.873Z,15.95
2017-10-13T01:51:44.354Z,15.97
2017-10-13T01:54:11.855Z,15.88
2017-10-13T01:56:39.359Z,15.84
2017-10-13T01:59:06.835Z,15.81
2017-10-13T02:01:34.297Z,15.92
2017-10-13T02:04:01.781Z,15.90
2017-10-13T02:06:29.410Z,15.77
2017-10-13T02:08:56.910Z,15.71
2017-10-13T02:11:24.388Z,15.65
2017-10-13T02:13:51.859Z,15.56
2017-10-13T02:16:19.351Z,15.69
2017-10-13T02:18:46.974Z,15.73
2017-10-13T02:21:14.468Z,15.61
2017-10-13T02:23:41.975Z,15.63
2017-10-13T02:26:09.484Z,15.59
2017-10-13T02:28:37.017Z,15.47
2017-10-13T02:31:04.515Z,15.58
2017-10-13T02:33:32.017Z,15.58
2017-10-13T02:35:59.482Z,15.58
2017-10-13T02:38:26.959Z,15.48
2017-10-13T02:40:54.435Z,15.45
2017-10-13T02:43:21.908Z,15.53
2017-10-13T02:45:49.384Z,15.50
2017-10-13T02:48:16.864Z,15.46
2017-10-13T02:50:44.350Z,15.42
2017-10-13T02:53:11.829Z,15.38
2017-10-13T02:55:39.334Z,15.45
2017-10-13T02:58:06.817Z,15.42
2017-10-13T03:00:34.473Z,15.49
2017-10-13T03:03:01.980Z,15.42
2017-10-13T03:05:29.437Z,15.42
2017-10-13T03:07:56.911Z,15.41
2017-10-13T03:10:24.422Z,15.38
2017-10-13T03:12:51.887Z,15.39
2017-10-13T03:15:19.391Z,15.38
2017-10-13T03:17:46.890Z,15.39
2017-10-13T03:20:14.424Z,15.49
2017-10-13T03:22:41.884Z,15.39
2017-10-13T03:25:09.412Z,15.41
2017-10-13T03:27:36.894Z,15.45
2017-10-13T03:30:04.384Z,15.45
2017-10-13T03:32:31.880Z,15.36
2017-10-13T03:34:59.352Z,15.36
2017-10-13T03:37:26.835Z,15.38
2017-10-13T03:39:54.371Z,15.42
2017-10-13T03:42:21.841Z,15.32
2017-10-13T03:44:49.366Z,15.19
2017-10-13T03:47:16.838Z,15.22
2017-10-13T03:49:44.406Z,15.18
2017-10-13T03:52:11.904Z,15.18
2017-10-13T03:54:39.389Z,15.16
2017-10-13T03:57:06.870Z,15.14
2017-10-13T03:59:34.339Z,15.12
2017-10-13T04:02:01.819Z,15.06
2017-10-13T04:04:29.300Z,14.98
2017-10-13T04:06:56.770Z,14.99
2017-10-13T04:09:24.278Z,14.93
2017-10-13T04:11:51.758Z,14.91
2017-10-13T04:14:19.257Z,14.93
2017-10-13T04:16:46.818Z,14.94
2017-10-13T04:19:14.281Z,14.94
2017-10-13T04:21:41.782Z,14.93
2017-10-13T04:24:09.297Z,14.89
2017-10-13T04:26:36.784Z,14.85
2017-10-13T04:29:04.229Z,14.88
2017-10-13T04:31:31.742Z,14.94
2017-10-13T04:33:59.255Z,14.88
2017-10-13T04:36:26.795Z,14.83
2017-10-13T04:38:54.868Z,14.74
2017-10-13T04:41:22.339Z,14.81
2017-10-13T04:43:49.832Z,14.77
2017-10-13T04:46:17.329Z,14.85
2017-10-13T04:48:44.941Z,14.80
2017-10-13T04:51:12.523Z,14.87
2017-10-13T04:53:40.018Z,14.81
2017-10-13T04:56:07.488Z,14.82
2017-10-13T04:58:34.955Z,14.75
2017-10-13T05:01:02.448Z,14.74
2017-10-13T05:03:29.951Z,14.82
2017-10-13T05:05:57.445Z,14.70
2017-10-13T05:08:24.967Z,14.57
2017-10-13T05:10:52.459Z,14.57
2017-10-13T05:13:19.941Z,14.60
2017-10-13T05:15:47.428Z,14.64
2017-10-13T05:18:14.894Z,14.78
2017-10-13T05:20:42.382Z,14.82
2017-10-13T05:23:09.867Z,14.88
2017-10-13T05:25:37.347Z,14.72
2017-10-13T05:28:04.835Z,14.75
2017-10-13T05:30:32.361Z,14.80
2017-10-13T05:32:59.841Z,14.89
2017-10-13T05:35:27.302Z,14.82
2017-10-13T05:37:54.790Z,14.93
2017-10-13T05:40:22.248Z,14.95
2017-10-13T05:42:49.727Z,14.95
2017-10-13T05:45:17.301Z,15.03
2017-10-13T05:47:44.791Z,15.01
2017-10-13T05:50:12.276Z,15.07
2017-10-13T05:52:39.773Z,15.11
2017-10-13T05:55:07.261Z,15.22
2017-10-13T05:57:34.745Z,15.22
2017-10-13T06:00:02.229Z,15.22
2017-10-13T06:02:29.701Z,15.33
2017-10-13T06:04:57.240Z,15.37
2017-10-13T06:07:24.726Z,15.38
2017-10-13T06:09:52.238Z,15.44
2017-10-13T06:12:19.738Z,15.52
2017-10-13T06:14:47.261Z,15.53
2017-10-13T06:17:14.762Z,15.60
2017-10-13T06:19:42.237Z,15.65
2017-10-13T06:22:09.729Z,15.71
2017-10-13T06:24:37.244Z,15.75
2017-10-13T06:27:04.752Z,15.87
2017-10-13T06:29:32.231Z,15.99
2017-10-13T06:31:59.698Z,15.99
2017-10-13T06:34:27.155Z,16.01
2017-10-13T06:36:54.738Z,16.11
2017-10-13T06:39:22.209Z,16.20
2017-10-13T06:41:49.691Z,16.20
2017-10-13T06:44:17.314Z,16.30
2017-10-13T06:46:44.901Z,16.33
2017-10-13T06:49:12.364Z,16.36
2017-10-13T06:51:39.864Z,16.43
2017-10-13T06:54:07.351Z,16.43
2017-10-13T06:56:34.814Z,16.52
2017-10-13T06:59:02.288Z,16.69
2017-10-13T07:01:29.736Z,16.79
2017-10-13T07:03:57.211Z,16.77
2017-10-13T07:06:24.717Z,16.78
2017-10-13T07:08:52.201Z,16.91
2017-10-13T07:11:19.686Z,17.01
2017-10-13T07:13:47.205Z,17.15
2017-10-13T07:16:14.722Z,17.14
2017-10-13T07:18:42.291Z,17.02
2017-10-13T07:21:09.828Z,17.11
2017-10-13T07:23:37.296Z,17.14
2017-10-13T07:26:04.764Z,17.14
2017-10-13T07:28:32.372Z,17.15
2017-10-13T07:30:59.850Z,17.25
2017-10-13T07:33:27.297Z,17.35
2017-10-13T07:35:54.769Z,17.36
2017-10-13T07:38:22.233Z,17.41
2017-10-13T07:40:49.708Z,17.46
2017-10-13T07:43:17.233Z,17.51
2017-10-13T07:45:44.706Z,17.41
2017-10-13T07:48:12.174Z,17.52
2017-10-13T07:50:40.420Z,17.54
2017-10-13T07:53:07.897Z,17.60
2017-10-13T07:55:35.387Z,17.64
2017-10-13T07:58:02.897Z,17.74
2017-10-13T08:00:30.552Z,17.82
2017-10-13T08:02:58.016Z,17.90
2017-10-13T08:05:25.549Z,18.07
2017-10-13T08:07:53.020Z,18.28
2017-10-13T08:10:20.485Z,18.26
2017-10-13T08:12:47.983Z,17.99
2017-10-13T08:15:15.452Z,17.91
2017-10-13T08:17:42.910Z,17.87
2017-10-13T08:20:11.135Z,18.05
2017-10-13T08:22:38.637Z,18.14
2017-10-13T08:25:06.172Z,18.18
2017-10-13T08:27:33.652Z,18.31
2017-10-13T08:30:01.164Z,18.49
2017-10-13T08:32:28.661Z,18.48
2017-10-13T08:34:56.173Z,18.39
2017-10-13T08:37:23.669Z,18.56
2017-10-13T08:39:51.136Z,18.61
2017-10-13T08:42:18.634Z,18.55
2017-10-13T08:44:46.093Z,18.60
2017-10-13T08:47:13.551Z,18.57
2017-10-13T08:49:41.046Z,18.40
2017-10-13T08:52:08.518Z,18.36
2017-10-13T08:54:36.044Z,18.37
2017-10-13T08:57:03.561Z,18.48
2017-10-13T08:59:31.057Z,18.30
2017-10-13T09:01:58.542Z,18.27
2017-10-13T09:04:26.058Z,18.48
2017-10-13T09:06:53.546Z,18.51
2017-10-13T09:09:21.067Z,18.60
2017-10-13T09:11:48.600Z,18.84
2017-10-13T09:14:16.085Z,18.92
2017-10-13T09:16:43.550Z,19.15
2017-10-13T09:19:11.113Z,18.99
2017-10-13T09:21:38.623Z,18.78
2017-10-13T09:24:06.105Z,18.70
2017-10-13T09:26:33.593Z,18.74
2017-10-13T09:29:01.068Z,18.76
2017-10-13T09:31:28.619Z,18.88
2017-10-13T09:33:56.119Z,18.86
2017-10-13T09:36:23.581Z,19.17
2017-10-13T09:38:51.072Z,19.25
2017-10-13T09:41:18.559Z,19.20
2017-10-13T09:43:46.056Z,19.06
2017-10-13T09:46:13.529Z,18.96
2017-10-13T09:48:41.175Z,19.06
2017-10-13T09:51:08.659Z,19.10
2017-10-13T09:53:36.130Z,19.29
2017-10-13T09:56:03.620Z,19.09
2017-10-13T09:58:31.085Z,18.99
2017-10-13T10:00:58.597Z,18.98
2017-10-13T10:03:26.143Z,19.13
2017-10-13T10:05:53.604Z,19.26
2017-10-13T10:08:21.069Z,19.30
2017-10-13T10:10:48.574Z,19.28
2017-10-13T10:13:16.059Z,19.51
2017-10-13T10:15:43.534Z,19.73
2017-10-13T10:18:11.453Z,19.66
2017-10-13T10:20:38.907Z,19.71
2017-10-13T10:23:06.454Z,19.66
2017-10-13T10:25:33.960Z,19.73
2017-10-13T10:28:01.623Z,19.87
2017-10-13T10:30:29.085Z,19.73
2017-10-13T10:32:56.619Z,19.36
2017-10-13T10:35:24.094Z,19.45
2017-10-13T10:37:51.561Z,19.52
2017-10-13T10:40:19.055Z,19.25
2017-10-13T10:42:46.549Z,19.37
2017-10-13T10:45:14.049Z,19.47
2017-10-13T10:47:41.579Z,19.31
2017-10-13T10:50:09.080Z,19.37
2017-10-13T10:52:36.569Z,19.43
2017-10-13T10:55:04.039Z,19.63
2017-10-13T10:57:31.494Z,19.63
2017-10-13T10:59:58.962Z,19.68
2017-10-13T11:02:26.443Z,19.82
2017-10-13T11:04:53.912Z,19.72
2017-10-13T11:07:21.389Z,19.60
2017-10-13T11:09:48.874Z,19.56
2017-10-13T11:12:16.336Z,19.47
2017-10-13T11:14:43.792Z,19.42
2017-10-13T11:17:11.267Z,19.36
2017-10-13T11:19:39.188Z,19.60
2017-10-13T11:22:07.784Z,19.56
2017-10-13T11:24:35.262Z,19.62
2017-10-13T11:27:02.748Z,19.73
2017-10-13T11:29:30.225Z,19.65
2017-10-13T11:31:57.717Z,19.49
2017-10-13T11:34:25.190Z,19.41
2017-10-13T11:36:52.704Z,19.47
2017-10-13T11:39:20.184Z,19.46
2017-10-13T11:41:48.007Z,19.46
2017-10-13T11:44:15.546Z,19.51
2017-10-13T11:46:43.068Z,19.43
2017-10-13T11:49:10.546Z,19.57
2017-10-13T11:51:37.998Z,19.65
2017-10-13T11:54:05.538Z,19.72
2017-10-13T11:56:33.022Z,19.73
2017-10-13T11:59:00.594Z,19.72
2017-10-13T12:01:28.080Z,19.60
2017-10-13T12:03:55.572Z,19.66
2017-10-13T12:06:23.048Z,19.75
2017-10-13T12:08:50.533Z,19.88
2017-10-13T12:11:18.025Z,19.99
2017-10-13T12:13:46.429Z,20.13
2017-10-13T12:16:14.067Z,20.02
2017-10-13T12:18:41.599Z,19.95
2017-10-13T12:21:09.073Z,19.97
2017-10-13T12:23:36.629Z,19.98
2017-10-13T12:26:04.124Z,20.15
2017-10-13T12:28:31.580Z,20.27
2017-10-13T12:30:59.106Z,20.29
2017-10-13T12:33:26.600Z,20.30
2017-10-13T12:35:54.461Z,20.18
2017-10-13T12:38:21.944Z,20.35
2017-10-13T12:40:49.449Z,20.38
2017-10-13T12:43:16.937Z,20.62
2017-10-13T12:45:44.437Z,20.51
2017-10-13T12:48:11.983Z,20.58
2017-10-13T12:50:39.453Z,20.65
2017-10-13T12:53:07.015Z,20.83
2017-10-13T12:55:34.506Z,21.06
2017-10-13T12:58:01.969Z,21.22
2017-10-13T13:00:29.472Z,21.26
2017-10-13T13:02:56.944Z,21.65
2017-10-13T13:05:24.440Z,21.68
2017-10-13T13:07:52.288Z,21.73
2017-10-13T13:10:19.778Z,21.60
2017-10-13T13:12:47.342Z,21.34
2017-10-13T13:15:14.880Z,21.10
2017-10-13T13:17:42.375Z,21.00
2017-10-13T13:20:09.938Z,21.21
2017-10-13T13:22:37.433Z,21.44
2017-10-13T13:25:04.963Z,21.44
2017-10-13T13:27:32.638Z,21.30
2017-10-13T13:30:00.176Z,21.46
2017-10-13T13:32:27.663Z,21.89
2017-10-13T13:34:55.215Z,21.78
2017-10-13T13:37:22.714Z,21.70
2017-10-13T13:39:50.287Z,22.18
2017-10-13T13:42:17.797Z,22.27
2017-10-13T13:44:45.342Z,22.30
2017-10-13T13:47:12.798Z,22.05
2017-10-13T13:49:40.279Z,22.29
2017-10-13T13:52:07.769Z,22.44
2017-10-13T13:54:35.248Z,22.62
2017-10-13T13:57:02.790Z,22.98
2017-10-13T13:59:30.285Z,23.32
2017-10-13T14:01:57.776Z,22.94
2017-10-13T14:04:25.408Z,23.17
2017-10-13T14:06:52.927Z,23.20
2017-10-13T14:09:20.419Z,23.51
2017-10-13T14:11:47.941Z,23.59
2017-10-13T14:14:15.484Z,22.98
2017-10-13T14:16:42.955Z,22.14
2017-10-13T14:19:10.449Z,21.84
2017-10-13T14:21:37.953Z,21.55
2017-10-13T14:24:05.426Z,20.98
2017-10-13T14:26:32.919Z,20.71
2017-10-13T14:29:00.443Z,20.60
2017-10-13T14:31:27.937Z,20.31
2017-10-13T14:33:55.617Z,20.86
2017-10-13T14:36:23.146Z,21.37
2017-10-13T14:38:50.637Z,21.22
2017-10-13T14:41:18.117Z,20.93
2017-10-13T14:43:45.613Z,21.79
2017-10-13T14:46:13.115Z,22.48
2017-10-13T14:48:40.657Z,22.69
2017-10-13T14:51:08.239Z,23.34
2017-10-13T14:53:35.723Z,23.87
2017-10-13T14:56:03.204Z,23.99
2017-10-13T14:58:30.960Z,23.71
2017-10-13T15:00:58.462Z,23.87
2017-10-13T15:03:25.950Z,23.76
2017-10-13T15:05:53.448Z,23.53
2017-10-13T15:08:20.958Z,23.80
2017-10-13T15:10:48.441Z,23.41
2017-10-13T15:13:15.926Z,23.53
2017-10-13T15:15:43.486Z,22.92
2017-10-13T15:18:11.015Z,23.17
2017-10-13T15:20:38.582Z,23.01
2017-10-13T15:23:06.039Z,23.09
2017-10-13T15:25:39.205Z,22.88
2017-10-13T15:28:12.217Z,23.41
2017-10-13T15:30:45.286Z,23.36
2017-10-13T15:33:18.398Z,23.06
2017-10-13T15:35:51.349Z,22.44
2017-10-13T15:38:24.359Z,22.29
2017-10-13T15:40:57.449Z,21.92
2017-10-13T15:43:30.450Z,21.38
2017-10-13T15:46:03.470Z,20.80
2017-10-13T15:48:30.926Z,20.53
2017-10-13T15:51:03.886Z,20.34
2017-10-13T15:53:31.351Z,19.91
2017-10-13T15:55:58.845Z,19.49
2017-10-13T15:58:26.342Z,19.30
2017-10-13T16:00:53.813Z,19.08
2017-10-13T16:03:21.312Z,19.03
2017-10-13T16:05:48.984Z,18.99
2017-10-13T16:08:16.520Z,18.79
2017-10-13T16:10:44.034Z,18.75
2017-10-13T16:13:11.528Z,18.49
2017-10-13T16:15:38.995Z,18.35
2017-10-13T16:18:06.513Z,18.16
2017-10-13T16:20:33.999Z,18.22
2017-10-13T16:23:01.471Z,18.14
2017-10-13T16:25:29.728Z,18.05
2017-10-13T16:27:57.238Z,18.00
2017-10-13T16:30:24.884Z,18.03
2017-10-13T16:32:52.425Z,18.04
2017-10-13T16:35:19.941Z,17.90
2017-10-13T16:37:47.482Z,17.89
2017-10-13T16:42:49.771Z,17.95
2017-10-13T16:45:17.371Z,17.91
2017-10-13T16:47:44.942Z,17.85
2017-10-13T16:50:12.502Z,17.95
2017-10-13T16:52:39.997Z,17.95
2017-10-13T16:55:07.500Z,17.86
2017-10-13T16:57:35.005Z,17.84
2017-10-13T17:00:02.542Z,17.80
2017-10-13T17:02:30.074Z,17.74
2017-10-13T17:04:57.659Z,17.71
2017-10-13T17:07:25.133Z,17.74
2017-10-13T17:09:52.610Z,17.71
2017-10-13T17:12:20.129Z,17.71
2017-10-13T17:14:47.602Z,17.71
2017-10-13T17:17:15.073Z,17.74
2017-10-13T17:19:42.603Z,17.70
2017-10-13T17:22:10.093Z,17.69
2017-10-13T17:24:37.629Z,17.63
2017-10-13T17:27:05.152Z,17.60
2017-10-13T17:29:32.622Z,17.57
2017-10-13T17:32:00.147Z,17.53
2017-10-13T17:34:27.678Z,17.49
2017-10-13T17:36:55.234Z,17.44
2017-10-13T17:39:22.774Z,17.42
2017-10-13T17:41:50.269Z,17.47
2017-10-13T17:44:17.750Z,17.45
2017-10-13T17:46:45.263Z,17.40
2017-10-13T17:49:12.817Z,17.34
2017-10-13T17:51:40.301Z,17.32
2017-10-13T17:54:07.810Z,17.28
2017-10-13T17:56:35.483Z,17.20
2017-10-13T17:59:02.980Z,17.11
2017-10-13T18:01:30.525Z,17.04
2017-10-13T18:03:58.033Z,17.07
2017-10-13T18:06:25.566Z,17.05
2017-10-13T18:08:53.091Z,17.01
2017-10-13T18:11:20.680Z,16.96
2017-10-13T18:13:48.168Z,16.88
2017-10-13T18:16:15.687Z,16.71
2017-10-13T18:18:43.225Z,16.61
2017-10-13T18:21:10.730Z,16.57
2017-10-13T18:23:38.212Z,16.61
2017-10-13T18:26:05.747Z,16.61
2017-10-13T18:28:33.218Z,16.62
2017-10-13T18:31:00.712Z,16.57
2017-10-13T18:33:28.237Z,16.59
2017-10-13T18:35:55.745Z,16.44
2017-10-13T18:38:23.276Z,16.27
2017-10-13T18:40:50.801Z,16.19
2017-10-13T18:43:18.356Z,16.18
2017-10-13T18:45:45.830Z,16.20
2017-10-13T18:48:13.414Z,16.24
2017-10-13T18:50:41.016Z,16.17
2017-10-13T18:53:08.492Z,16.16
2017-10-13T18:55:36.022Z,16.15
2017-10-13T18:58:03.521Z,16.27
2017-10-13T19:00:31.019Z,16.26
2017-10-13T19:02:58.529Z,16.27
2017-10-13T19:05:26.061Z,16.31
2017-10-13T19:07:53.651Z,16.38
2017-10-13T19:10:21.209Z,16.47
2017-10-13T19:12:48.695Z,16.43
2017-10-13T19:15:16.278Z,16.38
2017-10-13T19:17:43.790Z,16.39
2017-10-13T19:20:11.314Z,16.32
2017-10-13T19:22:38.826Z,16.23
2017-10-13T19:25:06.390Z,16.37
2017-10-13T19:27:33.930Z,16.33
2017-10-13T19:30:01.404Z,16.43
2017-10-13T19:32:28.964Z,16.55
2017-10-13T19:34:56.428Z,16.46
2017-10-13T19:37:23.916Z,16.39
2017-10-13T19:39:51.454Z,16.31
2017-10-13T19:42:18.967Z,16.38
2017-10-13T19:44:46.535Z,16.44
2017-10-13T19:47:14.141Z,16.31
2017-10-13T19:49:41.615Z,16.36
2017-10-13T19:52:09.130Z,16.30
2017-10-13T19:54:36.703Z,16.35
2017-10-13T19:57:04.187Z,16.30
2017-10-13T19:59:31.688Z,16.44
2017-10-13T20:01:59.185Z,16.37
2017-10-13T20:04:26.676Z,16.40
2017-10-13T20:06:54.150Z,16.37
2017-10-13T20:09:21.615Z,16.39
2017-10-13T20:11:49.103Z,16.32
2017-10-13T20:14:16.686Z,16.31
2017-10-13T20:16:44.195Z,16.26
2017-10-13T20:19:11.709Z,16.31
2017-10-13T20:21:39.278Z,16.35
2017-10-13T20:24:06.799Z,16.33
2017-10-13T20:26:34.352Z,16.29
2017-10-13T20:29:01.863Z,16.16
2017-10-13T20:31:29.374Z,16.27
2017-10-13T20:33:56.838Z,16.26
2017-10-13T20:36:24.384Z,16.26
2017-10-13T20:38:51.853Z,16.18
2017-10-13T20:41:19.374Z,16.28
2017-10-13T20:43:46.856Z,16.20
2017-10-13T20:46:14.384Z,16.02
2017-10-13T20:48:42.642Z,16.06
2017-10-13T20:51:10.119Z,16.08
2017-10-13T20:53:37.613Z,16.12
2017-10-13T20:56:05.080Z,16.15
2017-10-13T20:58:32.541Z,16.09
2017-10-13T21:01:00.058Z,15.96
2017-10-13T21:03:27.527Z,15.73
2017-10-13T21:05:55.024Z,15.73
2017-10-13T21:08:22.541Z,15.73
2017-10-13T21:10:50.074Z,15.94
2017-10-13T21:13:17.645Z,15.85
2017-10-13T21:15:45.226Z,15.73
2017-10-13T21:18:12.690Z,15.63
2017-10-13T21:20:40.225Z,15.62
2017-10-13T21:23:08.011Z,15.72
2017-10-13T21:25:35.541Z,15.67
2017-10-13T21:28:03.266Z,15.62
2017-10-13T21:30:30.781Z,15.65
2017-10-13T21:32:58.642Z,15.63
2017-10-13T21:35:26.190Z,15.61
2017-10-13T21:37:53.688Z,15.56
2017-10-13T21:40:21.154Z,15.60
2017-10-13T21:42:48.624Z,15.57
2017-10-13T21:45:16.152Z,15.55
2017-10-13T21:47:43.617Z,15.45
2017-10-13T21:50:11.130Z,15.47
2017-10-13T21:52:38.649Z,15.44
2017-10-13T21:55:06.214Z,15.32
2017-10-13T21:57:33.680Z,15.26
2017-10-13T22:00:01.181Z,15.19
2017-10-13T22:02:28.990Z,15.02
2017-10-13T22:05:02.046Z,15.01
2017-10-13T22:07:29.569Z,15.06
2017-10-13T22:09:57.071Z,15.00
2017-10-13T22:12:24.670Z,14.84
2017-10-13T22:14:52.162Z,14.94
2017-10-13T22:17:19.638Z,14.90
2017-10-13T22:19:47.178Z,14.86
2017-10-13T22:22:14.678Z,14.89
2017-10-13T22:24:42.162Z,14.93
2017-10-13T22:27:09.654Z,14.93
2017-10-13T22:29:37.132Z,14.93
2017-10-13T22:32:04.641Z,14.87
2017-10-13T22:34:32.134Z,14.88
2017-10-13T22:36:59.649Z,14.80
2017-10-13T22:39:27.149Z,14.78
2017-10-13T22:41:54.672Z,14.83
2017-10-13T22:44:22.133Z,14.78
2017-10-13T22:46:49.605Z,14.78
2017-10-13T22:49:17.104Z,14.65
2017-10-13T22:51:44.802Z,14.58
2017-10-13T22:54:12.341Z,14.72
2017-10-13T22:56:39.922Z,14.73
2017-10-13T22:59:07.413Z,14.75
2017-10-13T23:01:34.893Z,14.68
2017-10-13T23:04:02.370Z,14.59
2017-10-13T23:06:29.836Z,14.64
2017-10-13T23:08:57.315Z,14.58
2017-10-13T23:11:24.821Z,14.56
2017-10-13T23:13:52.295Z,14.62
2017-10-13T23:16:19.757Z,14.61
2017-10-13T23:18:47.241Z,14.59
2017-10-13T23:21:14.771Z,14.67
2017-10-13T23:23:42.233Z,14.59
2017-10-13T23:26:09.727Z,14.58
2017-10-13T23:28:37.187Z,14.57
2017-10-13T23:31:04.640Z,14.59
2017-10-13T23:33:32.130Z,14.47
2017-10-13T23:35:59.610Z,14.43
2017-10-13T23:38:27.068Z,14.29
2017-10-13T23:40:54.536Z,14.29
2017-10-13T23:43:22.014Z,14.26
2017-10-13T23:45:49.477Z,14.15
2017-10-13T23:48:16.953Z,14.20
2017-10-13T23:50:44.428Z,14.24
2017-10-13T23:53:11.880Z,14.14
2017-10-13T23:55:39.379Z,14.07
2017-10-13T23:58:06.853Z,14.00
